Time;durP1;ratioP1;P1;durP2;ratioP2;P2;SDS_P1;SDS_P2;PMS_P1;PMS_P2;Temp;Humidity;BMP_temperature;BMP_pressure;BME280_temperature;BME280_humidity;BME280_pressure;Samples;Min_cycle;Max_cycle;Signal;HPM_P1;HPM_P2
2023/10/23 00:01:38;;;;;;;3.40;3.10;;;13.00;51.00;;;;;;20391;6871;277833;-75
2023/10/23 00:04:02;;;;;;;3.80;2.87;;;13.20;50.70;;;;;;20611;6871;117537;-76
2023/10/23 00:06:28;;;;;;;3.23;2.93;;;13.00;50.80;;;;;;20624;6871;117711;-76
2023/10/23 00:08:53;;;;;;;4.40;2.80;;;12.60;51.30;;;;;;20619;6871;123613;-75
2023/10/23 00:11:26;;;;;;;3.50;3.20;;;12.40;51.80;;;;;;20409;6871;278675;-76
2023/10/23 00:13:51;;;;;;;4.40;3.50;;;12.40;51.80;;;;;;20388;6871;281049;-75
2023/10/23 00:16:20;;;;;;;5.50;3.13;;;12.60;51.70;;;;;;20414;6871;313150;-77
2023/10/23 00:18:46;;;;;;;4.20;3.20;;;12.90;51.60;;;;;;20408;6871;278408;-75
2023/10/23 00:21:11;;;;;;;3.45;3.15;;;13.00;50.80;;;;;;20406;6871;283278;-75
2023/10/23 00:23:38;;;;;;;3.50;2.60;;;12.80;50.90;;;;;;20599;6871;117512;-75
2023/10/23 00:26:03;;;;;;;2.60;2.40;;;12.80;50.30;;;;;;20613;6871;118998;-75
2023/10/23 00:28:30;;;;;;;3.33;2.90;;;12.40;51.10;;;;;;20402;6871;296381;-76
2023/10/23 00:30:55;;;;;;;2.97;2.40;;;12.40;51.10;;;;;;20613;6871;121497;-75
2023/10/23 00:33:21;;;;;;;3.27;2.80;;;12.30;51.30;;;;;;20401;6871;308560;-74
2023/10/23 00:35:46;;;;;;;4.20;2.70;;;12.30;51.20;;;;;;20604;6871;117629;-75
2023/10/23 00:38:12;;;;;;;4.00;2.80;;;12.20;51.30;;;;;;20406;6871;307740;-76
2023/10/23 00:40:37;;;;;;;4.97;2.20;;;12.30;51.60;;;;;;20622;6871;123151;-75
2023/10/23 00:43:13;;;;;;;3.47;3.10;;;12.20;51.40;;;;;;20402;6871;307998;-74
2023/10/23 00:45:38;;;;;;;3.33;2.70;;;12.20;51.40;;;;;;20586;6871;117783;-75
2023/10/23 00:48:05;;;;;;;4.10;3.20;;;12.10;51.70;;;;;;20380;6871;308260;-75
2023/10/23 00:50:30;;;;;;;3.63;3.27;;;12.10;51.70;;;;;;20402;6871;291495;-76
2023/10/23 00:52:56;;;;;;;4.28;3.47;;;12.40;51.20;;;;;;20409;6871;310540;-76
2023/10/23 00:55:21;;;;;;;3.30;3.00;;;12.50;50.80;;;;;;20617;6871;117781;-75
2023/10/23 00:57:48;;;;;;;2.90;2.70;;;11.90;52.20;;;;;;20598;6871;189455;-74
2023/10/23 01:00:13;;;;;;;2.80;2.60;;;12.00;51.70;;;;;;20617;6869;117830;-74
2023/10/23 01:02:39;;;;;;;3.13;2.83;;;11.70;52.30;;;;;;20623;6870;117247;-75
2023/10/23 01:05:05;;;;;;;5.10;3.62;;;11.50;52.70;;;;;;20406;6870;307276;-75
2023/10/23 01:07:30;;;;;;;3.60;3.07;;;11.60;52.30;;;;;;20605;6871;117768;-76
2023/10/23 01:09:57;;;;;;;3.97;3.37;;;11.60;52.30;;;;;;20623;6871;117402;-74
2023/10/23 01:12:23;;;;;;;4.30;3.70;;;11.60;53.20;;;;;;20398;6871;307574;-75
2023/10/23 01:14:50;;;;;;;3.37;3.07;;;11.60;52.50;;;;;;20612;6871;117324;-75
2023/10/23 01:17:17;;;;;;;4.07;3.67;;;11.70;51.90;;;;;;20397;6871;322467;-75
2023/10/23 01:19:42;;;;;;;4.53;3.90;;;11.70;51.80;;;;;;20380;6871;305626;-75
2023/10/23 01:22:08;;;;;;;3.70;3.40;;;11.90;51.70;;;;;;20397;6871;309261;-74
2023/10/23 01:24:34;;;;;;;4.85;3.40;;;12.30;50.90;;;;;;20400;6871;308015;-75
2023/10/23 01:26:59;;;;;;;5.00;3.07;;;12.30;50.90;;;;;;20402;6871;279013;-76
2023/10/23 01:29:25;;;;;;;5.28;3.17;;;12.40;50.90;;;;;;20616;6871;122266;-76
2023/10/23 01:31:51;;;;;;;3.20;2.83;;;12.10;51.10;;;;;;20591;6871;118312;-75
2023/10/23 01:34:16;;;;;;;4.33;3.07;;;11.70;51.80;;;;;;20401;6871;280417;-76
2023/10/23 01:36:43;;;;;;;2.80;2.22;;;11.60;52.50;;;;;;20608;6871;117668;-75
2023/10/23 01:39:09;;;;;;;3.13;2.60;;;11.30;52.90;;;;;;20616;6871;117588;-75
2023/10/23 01:41:34;;;;;;;3.17;2.87;;;11.30;52.90;;;;;;20381;6871;308675;-75
2023/10/23 01:44:00;;;;;;;6.63;3.33;;;11.40;52.80;;;;;;20405;6871;281074;-76
2023/10/23 01:46:29;;;;;;;3.33;2.50;;;11.70;52.60;;;;;;20617;6871;117271;-76
2023/10/23 01:48:54;;;;;;;5.57;2.80;;;11.60;52.50;;;;;;20626;6871;117780;-75
2023/10/23 01:51:20;;;;;;;3.20;2.90;;;11.30;52.90;;;;;;20406;6871;310492;-75
2023/10/23 01:53:45;;;;;;;3.43;2.80;;;11.40;53.00;;;;;;20606;6871;117496;-76
2023/10/23 01:56:11;;;;;;;3.10;2.80;;;11.30;52.90;;;;;;20617;6871;118005;-75
2023/10/23 01:58:37;;;;;;;2.27;2.17;;;10.90;53.60;;;;;;20609;6871;117309;-75
2023/10/23 02:01:03;;;;;;;2.50;2.30;;;10.80;53.50;;;;;;20613;6871;117335;-75
2023/10/23 02:03:28;;;;;;;3.13;2.80;;;10.70;53.90;;;;;;20389;6871;278915;-76
2023/10/23 02:05:56;;;;;;;3.37;3.13;;;10.90;53.80;;;;;;20394;6871;337179;-75
2023/10/23 02:08:23;;;;;;;2.57;2.37;;;11.30;53.00;;;;;;20608;6871;117253;-76
2023/10/23 02:10:46;;;;;;;5.03;3.17;;;11.20;52.90;;;;;;20395;6871;307552;-75
2023/10/23 02:13:13;;;;;;;2.90;2.60;;;11.30;53.00;;;;;;20620;6869;119237;-74
2023/10/23 02:15:39;;;;;;;2.90;2.60;;;11.20;52.90;;;;;;20595;6870;117826;-75
2023/10/23 02:18:04;;;;;;;4.07;2.80;;;11.00;53.50;;;;;;20614;6871;117586;-75
2023/10/23 02:20:30;;;;;;;3.20;2.90;;;10.80;53.90;;;;;;20398;6871;310432;-75
2023/10/23 02:22:55;;;;;;;3.05;2.67;;;10.90;53.90;;;;;;20617;6871;119771;-75
2023/10/23 02:25:21;;;;;;;3.25;2.65;;;10.90;53.60;;;;;;20617;6871;120380;-75
2023/10/23 02:27:47;;;;;;;3.20;2.90;;;10.80;54.00;;;;;;20382;6871;337616;-75
2023/10/23 02:30:12;;;;;;;3.73;3.43;;;10.90;53.80;;;;;;20404;6871;280033;-75
2023/10/23 02:32:38;;;;;;;3.70;3.37;;;11.30;52.80;;;;;;20409;6871;311035;-75
2023/10/23 02:35:04;;;;;;;3.60;2.90;;;11.50;52.50;;;;;;20616;6871;117772;-75
2023/10/23 02:37:29;;;;;;;2.90;2.70;;;11.40;52.70;;;;;;20382;6871;307860;-75
2023/10/23 02:39:56;;;;;;;4.03;3.70;;;11.40;52.40;;;;;;20619;6871;117981;-76
2023/10/23 02:42:20;;;;;;;3.40;3.20;;;11.30;52.50;;;;;;20606;6871;117634;-75
2023/10/23 02:44:46;;;;;;;3.47;3.17;;;11.00;52.90;;;;;;20401;6871;329557;-75
2023/10/23 02:47:12;;;;;;;2.60;2.40;;;11.00;52.90;;;;;;20619;6871;120287;-75
2023/10/23 02:49:37;;;;;;;2.97;2.78;;;11.00;52.90;;;;;;20388;6871;309284;-75
2023/10/23 02:52:03;;;;;;;2.85;2.65;;;11.10;52.40;;;;;;20617;6871;118220;-80
2023/10/23 02:54:29;;;;;;;2.97;2.30;;;10.80;52.80;;;;;;20611;6871;117379;-75
2023/10/23 02:56:55;;;;;;;2.40;2.20;;;10.70;52.70;;;;;;20613;6871;118719;-75
2023/10/23 02:59:21;;;;;;;2.80;2.60;;;10.50;53.10;;;;;;20392;6871;314931;-76
2023/10/23 03:01:46;;;;;;;3.17;2.90;;;10.70;52.60;;;;;;20383;6871;308837;-76
2023/10/23 03:04:11;;;;;;;6.00;5.50;;;11.00;51.70;;;;;;20400;6871;312570;-75
2023/10/23 03:06:37;;;;;;;3.30;3.10;;;11.30;51.00;;;;;;20612;6871;117489;-75
2023/10/23 03:09:03;;;;;;;3.00;2.70;;;11.10;51.00;;;;;;20406;6871;280485;-75
2023/10/23 03:11:28;;;;;;;2.70;2.53;;;11.10;51.20;;;;;;20634;6871;118153;-78
2023/10/23 03:13:55;;;;;;;3.97;2.47;;;10.70;52.00;;;;;;20449;6871;117660;-75
2023/10/23 03:16:21;;;;;;;2.80;2.60;;;10.70;52.00;;;;;;20626;6871;119834;-74
2023/10/23 03:18:46;;;;;;;2.80;2.60;;;10.40;52.40;;;;;;20414;6871;278941;-74
2023/10/23 03:21:11;;;;;;;2.60;2.40;;;10.50;52.50;;;;;;20630;6871;119855;-75
2023/10/23 03:23:37;;;;;;;3.30;3.00;;;10.50;52.50;;;;;;20396;6869;311271;-74
2023/10/23 03:26:02;;;;;;;3.10;2.90;;;10.70;52.40;;;;;;20620;6870;117531;-74
2023/10/23 03:28:28;;;;;;;3.23;2.93;;;10.60;52.30;;;;;;20619;6870;117247;-75
2023/10/23 03:30:54;;;;;;;4.03;3.10;;;10.20;53.30;;;;;;20617;6871;117239;-75
2023/10/23 03:33:20;;;;;;;2.83;2.63;;;10.20;53.30;;;;;;20620;6871;119091;-75
2023/10/23 03:35:45;;;;;;;3.22;3.03;;;10.10;53.60;;;;;;20598;6871;117734;-74
2023/10/23 03:38:11;;;;;;;3.97;3.50;;;9.90;55.10;;;;;;20411;6871;278702;-74
2023/10/23 03:40:37;;;;;;;3.83;3.53;;;10.20;53.70;;;;;;20405;6871;308569;-74
2023/10/23 03:43:03;;;;;;;3.45;3.25;;;10.50;52.40;;;;;;20613;6871;117392;-74
2023/10/23 03:45:28;;;;;;;4.00;3.60;;;10.50;52.70;;;;;;20376;6871;331105;-77
2023/10/23 03:47:55;;;;;;;4.17;3.80;;;10.90;51.60;;;;;;20413;6867;279499;-74
2023/10/23 03:50:20;;;;;;;4.37;3.53;;;10.90;51.60;;;;;;20414;6867;284800;-74
2023/10/23 03:52:46;;;;;;;4.13;3.73;;;11.10;51.00;;;;;;20418;6867;283585;-75
2023/10/23 03:55:12;;;;;;;4.03;3.63;;;11.30;50.50;;;;;;20631;6867;118065;-74
2023/10/23 03:57:37;;;;;;;3.83;3.63;;;11.10;50.80;;;;;;20392;6867;309998;-76
2023/10/23 04:00:05;;;;;;;3.85;3.55;;;10.80;50.90;;;;;;20626;6867;117544;-74
2023/10/23 04:02:29;;;;;;;6.23;4.80;;;10.80;50.90;;;;;;20629;6867;117119;-75
2023/10/23 04:04:55;;;;;;;4.60;4.30;;;10.50;51.50;;;;;;20635;6867;117383;-74
2023/10/23 04:07:20;;;;;;;4.15;3.83;;;10.30;51.90;;;;;;20428;6867;280816;-74
2023/10/23 04:09:46;;;;;;;4.18;3.83;;;10.40;51.60;;;;;;20405;6867;278620;-74
2023/10/23 04:12:12;;;;;;;3.23;2.93;;;10.70;51.10;;;;;;20630;6867;117537;-75
2023/10/23 04:14:37;;;;;;;3.50;3.25;;;10.60;51.00;;;;;;20630;6867;117189;-74
2023/10/23 04:17:04;;;;;;;3.57;3.30;;;10.30;51.40;;;;;;20421;6867;313717;-72
2023/10/23 04:19:29;;;;;;;3.17;2.97;;;10.30;51.60;;;;;;20607;6867;117477;-72
2023/10/23 04:21:56;;;;;;;4.00;3.60;;;10.30;51.10;;;;;;20406;6867;309598;-76
2023/10/23 04:24:22;;;;;;;4.35;3.72;;;10.60;51.20;;;;;;20407;6867;308648;-74
2023/10/23 04:26:48;;;;;;;4.13;3.50;;;10.60;51.20;;;;;;20630;6867;122943;-72
2023/10/23 04:29:13;;;;;;;4.00;3.63;;;10.50;51.40;;;;;;20416;6867;306218;-75
2023/10/23 04:31:39;;;;;;;3.67;3.37;;;10.40;51.50;;;;;;20604;6867;118247;-74
2023/10/23 04:34:05;;;;;;;3.83;3.20;;;10.40;51.50;;;;;;20622;6866;117782;-74
2023/10/23 04:36:31;;;;;;;37.17;33.43;;;10.20;52.00;;;;;;20418;6866;297124;-71
2023/10/23 04:38:56;;;;;;;5.53;5.03;;;10.20;51.70;;;;;;20637;6867;117478;-70
2023/10/23 04:41:22;;;;;;;4.80;4.40;;;10.20;51.70;;;;;;20632;6867;117550;-72
2023/10/23 04:43:47;;;;;;;5.45;5.05;;;10.00;52.10;;;;;;20610;6867;117395;-71
2023/10/23 04:46:14;;;;;;;9.65;8.95;;;9.80;53.50;;;;;;20421;6867;338029;-71
2023/10/23 04:48:40;;;;;;;5.47;5.00;;;9.90;53.00;;;;;;20629;6867;120207;-72
2023/10/23 04:51:05;;;;;;;5.62;5.22;;;9.90;52.90;;;;;;20422;6867;313396;-71
2023/10/23 04:53:31;;;;;;;5.15;4.70;;;10.00;51.60;;;;;;20407;6867;291761;-72
2023/10/23 04:55:58;;;;;;;4.37;3.97;;;10.30;51.60;;;;;;20635;6867;116653;-75
2023/10/23 04:58:22;;;;;;;5.40;4.83;;;10.20;51.70;;;;;;20418;6867;285328;-71
2023/10/23 05:00:48;;;;;;;4.37;3.97;;;10.20;51.00;;;;;;20641;6867;120247;-71
2023/10/23 05:03:13;;;;;;;4.77;4.47;;;10.10;51.20;;;;;;20423;6867;282607;-72
2023/10/23 05:05:39;;;;;;;4.80;4.50;;;10.20;51.60;;;;;;20399;6867;282945;-73
2023/10/23 05:08:04;;;;;;;5.23;4.83;;;10.40;51.60;;;;;;20394;6867;280397;-73
2023/10/23 05:10:30;;;;;;;4.47;4.10;;;10.60;50.50;;;;;;20401;6867;310508;-72
2023/10/23 05:12:56;;;;;;;4.60;4.30;;;10.80;50.40;;;;;;20400;6867;311787;-73
2023/10/23 05:15:22;;;;;;;4.50;4.10;;;10.90;49.90;;;;;;20581;6867;117167;-72
2023/10/23 05:17:47;;;;;;;3.72;3.42;;;10.60;50.10;;;;;;20604;6867;117684;-74
2023/10/23 05:20:12;;;;;;;3.95;3.55;;;10.20;50.70;;;;;;20382;6867;339650;-72
2023/10/23 05:22:38;;;;;;;3.73;3.53;;;10.20;50.50;;;;;;20647;6867;117225;-71
2023/10/23 05:25:04;;;;;;;4.80;4.50;;;10.10;50.60;;;;;;20433;6867;328492;-72
2023/10/23 05:27:29;;;;;;;4.90;4.20;;;10.10;50.50;;;;;;20620;6867;119894;-72
2023/10/23 05:29:55;;;;;;;4.50;4.20;;;10.00;50.80;;;;;;20404;6867;312790;-73
2023/10/23 05:32:20;;;;;;;5.00;3.70;;;10.10;51.00;;;;;;20625;6867;117357;-72
2023/10/23 05:34:46;;;;;;;4.85;4.50;;;10.00;50.90;;;;;;20420;6867;339137;-73
2023/10/23 05:37:12;;;;;;;4.60;4.30;;;10.10;50.40;;;;;;20631;6867;119876;-73
2023/10/23 05:39:37;;;;;;;3.50;3.30;;;9.90;51.50;;;;;;20599;6867;119432;-72
2023/10/23 05:42:03;;;;;;;3.90;2.97;;;9.70;52.00;;;;;;20625;6867;117348;-73
2023/10/23 05:44:29;;;;;;;3.90;3.50;;;9.50;52.60;;;;;;20419;6867;279178;-72
2023/10/23 05:46:54;;;;;;;3.63;3.23;;;9.60;52.50;;;;;;20421;6866;309547;-72
2023/10/23 05:49:20;;;;;;;3.08;2.87;;;9.90;52.30;;;;;;20626;6867;117583;-72
2023/10/23 05:51:45;;;;;;;3.83;3.50;;;9.80;52.30;;;;;;20407;6867;279165;-75
2023/10/23 05:54:12;;;;;;;4.10;3.70;;;10.00;50.10;;;;;;20425;6867;283593;-71
2023/10/23 05:56:37;;;;;;;3.20;3.07;;;10.00;50.10;;;;;;20629;6867;122953;-71
2023/10/23 05:59:03;;;;;;;3.20;3.00;;;9.60;52.20;;;;;;20637;6867;117150;-71
2023/10/23 06:01:29;;;;;;;3.67;3.30;;;9.50;52.10;;;;;;20398;6867;309047;-73
2023/10/23 06:03:55;;;;;;;3.57;2.77;;;9.70;53.30;;;;;;20637;6867;119798;-72
2023/10/23 06:06:21;;;;;;;4.05;3.40;;;9.70;52.90;;;;;;20414;6867;312841;-72
2023/10/23 06:08:47;;;;;;;4.17;3.87;;;9.70;52.90;;;;;;20424;6867;313078;-72
2023/10/23 06:11:13;;;;;;;4.97;3.20;;;9.90;52.60;;;;;;20634;6867;122449;-72
2023/10/23 06:13:38;;;;;;;2.77;2.63;;;9.90;52.70;;;;;;20528;6867;117317;-72
2023/10/23 06:16:04;;;;;;;4.03;2.83;;;9.70;53.10;;;;;;20439;6867;304388;-71
2023/10/23 06:18:30;;;;;;;2.97;2.77;;;9.80;52.40;;;;;;20644;6867;67766;-75
2023/10/23 06:21:03;;;;;;;3.15;2.95;;;9.70;52.20;;;;;;20390;6867;339171;-72
2023/10/23 06:23:28;;;;;;;3.23;2.93;;;9.70;52.10;;;;;;20630;6867;68488;-72
2023/10/23 06:25:53;;;;;;;4.63;2.70;;;9.60;52.00;;;;;;20649;6867;68751;-72
2023/10/23 06:28:19;;;;;;;2.67;2.47;;;9.30;53.00;;;;;;20642;6867;67606;-72
2023/10/23 06:30:45;;;;;;;37.23;3.40;;;9.30;53.00;;;;;;20437;6867;308244;-72
2023/10/23 06:33:10;;;;;;;11.67;2.60;;;9.40;52.30;;;;;;20650;6867;68348;-72
2023/10/23 06:35:36;;;;;;;90.93;5.30;;;9.50;52.40;;;;;;20438;6867;278730;-72
2023/10/23 06:38:03;;;;;;;2.10;2.00;;;9.60;51.80;;;;;;20641;6867;72664;-72
2023/10/23 06:40:27;;;;;;;4.40;2.53;;;9.50;52.00;;;;;;20644;6867;71191;-72
2023/10/23 06:42:53;;;;;;;2.22;2.12;;;9.50;52.80;;;;;;20643;6867;67515;-72
2023/10/23 06:45:19;;;;;;;5.00;4.67;;;9.60;53.40;;;;;;20428;6867;309236;-72
2023/10/23 06:47:49;;;;;;;4.67;4.37;;;9.60;53.40;;;;;;20647;6867;67808;-72
2023/10/23 06:50:14;;;;;;;3.63;3.37;;;9.70;53.30;;;;;;20643;6867;68886;-73
2023/10/23 06:52:39;;;;;;;3.93;3.53;;;9.70;53.70;;;;;;20433;6867;309124;-73
2023/10/23 06:55:05;;;;;;;4.70;3.80;;;10.00;53.70;;;;;;20441;6867;324738;-73
2023/10/23 06:58:09;;;;;;;4.50;3.67;;;10.40;53.40;;;;;;20434;6866;347471;-73
2023/10/23 07:00:35;;;;;;;3.67;3.30;;;10.80;53.10;;;;;;20644;6867;68023;-73
2023/10/23 07:03:00;;;;;;;3.47;3.17;;;10.70;52.90;;;;;;20432;6867;306445;-73
2023/10/23 07:05:26;;;;;;;2.87;2.67;;;10.80;53.40;;;;;;20437;6867;316373;-73
2023/10/23 07:07:51;;;;;;;4.13;3.70;;;11.10;51.10;;;;;;20649;6867;68062;-73
2023/10/23 07:10:17;;;;;;;6.37;5.83;;;10.90;50.80;;;;;;20652;6867;68088;-73
2023/10/23 07:12:43;;;;;;;5.43;5.03;;;10.60;51.30;;;;;;20647;6867;68189;-73
2023/10/23 07:15:08;;;;;;;8.30;7.17;;;10.30;51.70;;;;;;20440;6867;328623;-71
2023/10/23 07:17:35;;;;;;;21.53;5.40;;;10.40;51.30;;;;;;20639;6867;68496;-71
2023/10/23 07:20:00;;;;;;;5.93;5.30;;;10.30;51.20;;;;;;20637;6867;77081;-71
2023/10/23 07:22:27;;;;;;;4.00;3.60;;;10.00;52.50;;;;;;20644;6867;67495;-70
2023/10/23 07:24:52;;;;;;;4.17;3.90;;;10.00;52.10;;;;;;20442;6867;284141;-71
2023/10/23 07:27:18;;;;;;;3.37;3.10;;;10.10;52.10;;;;;;20433;6867;308210;-75
2023/10/23 07:29:43;;;;;;;3.10;2.90;;;10.50;51.80;;;;;;20438;6867;280356;-75
2023/10/23 07:32:09;;;;;;;4.50;4.20;;;10.80;51.40;;;;;;20442;6867;280056;-74
2023/10/23 07:34:34;;;;;;;3.20;3.00;;;11.10;50.70;;;;;;20438;6867;308227;-74
2023/10/23 07:37:03;;;;;;;3.30;3.10;;;11.30;51.00;;;;;;20435;6867;299980;-77
2023/10/23 07:39:27;;;;;;;3.92;3.62;;;11.40;50.70;;;;;;20443;6867;308338;-74
2023/10/23 07:41:53;;;;;;;3.50;3.30;;;11.70;51.00;;;;;;20648;6867;69636;-75
2023/10/23 07:44:20;;;;;;;4.20;3.80;;;11.60;51.30;;;;;;20435;6867;280058;-75
2023/10/23 07:46:46;;;;;;;3.20;2.90;;;11.60;52.10;;;;;;20633;6867;68448;-73
2023/10/23 07:49:09;;;;;;;5.10;4.37;;;11.60;52.10;;;;;;20435;6867;313115;-74
2023/10/23 07:51:35;;;;;;;3.00;2.70;;;11.70;51.10;;;;;;20645;6867;67605;-74
2023/10/23 07:54:00;;;;;;;3.00;2.80;;;11.60;51.20;;;;;;20647;6867;68071;-74
2023/10/23 07:56:26;;;;;;;3.45;3.17;;;11.30;51.70;;;;;;20435;6867;342446;-75
2023/10/23 07:58:52;;;;;;;4.07;3.00;;;11.50;52.60;;;;;;20647;6867;72479;-74
2023/10/23 08:01:17;;;;;;;3.47;3.28;;;11.60;52.50;;;;;;20439;6867;311530;-75
2023/10/23 08:03:53;;;;;;;3.75;3.45;;;11.80;51.90;;;;;;20441;6867;316519;-75
2023/10/23 08:06:29;;;;;;;4.60;4.20;;;12.10;51.80;;;;;;20467;6775;309674;-77
2023/10/23 08:09:04;;;;;;;4.50;3.30;;;12.40;51.80;;;;;;20500;6792;284495;-74
2023/10/23 08:11:40;;;;;;;3.40;3.20;;;12.70;50.80;;;;;;20542;6776;337947;-74
2023/10/23 08:14:16;;;;;;;3.65;3.45;;;12.90;50.90;;;;;;20552;6774;307928;-75
2023/10/23 08:16:52;;;;;;;3.40;3.10;;;13.00;49.80;;;;;;20649;6783;67615;-74
2023/10/23 08:19:27;;;;;;;3.23;3.00;;;12.70;50.00;;;;;;20803;6764;68267;-74
2023/10/23 08:22:02;;;;;;;4.27;3.97;;;12.40;50.80;;;;;;20787;6764;68292;-74
2023/10/23 08:24:38;;;;;;;3.30;3.10;;;12.10;51.30;;;;;;20745;6764;67308;-75
2023/10/23 08:27:14;;;;;;;3.40;3.03;;;11.90;51.60;;;;;;20658;6764;68685;-75
2023/10/23 08:29:49;;;;;;;3.60;3.40;;;11.80;52.10;;;;;;20298;6837;286951;-74
2023/10/23 08:32:25;;;;;;;3.20;3.00;;;11.90;51.80;;;;;;20639;6798;72291;-73
2023/10/23 08:35:00;;;;;;;4.17;3.33;;;12.00;51.70;;;;;;20649;6794;69281;-73
2023/10/23 08:37:36;;;;;;;3.85;3.55;;;11.80;52.10;;;;;;20460;6781;278664;-73
2023/10/23 08:40:12;;;;;;;4.50;4.10;;;12.00;52.20;;;;;;20405;6806;308669;-73
2023/10/23 08:42:47;;;;;;;3.57;3.37;;;12.30;51.60;;;;;;20625;6805;68985;-73
2023/10/23 08:45:24;;;;;;;4.10;3.80;;;12.30;51.60;;;;;;20483;6779;307510;-73
2023/10/23 08:47:59;;;;;;;5.60;5.07;;;12.40;51.50;;;;;;20408;6790;279616;-73
2023/10/23 08:50:36;;;;;;;3.93;3.63;;;12.70;51.60;;;;;;20750;6760;73944;-73
2023/10/23 08:53:11;;;;;;;3.60;3.30;;;12.60;51.70;;;;;;20759;6760;67114;-73
2023/10/23 08:55:47;;;;;;;3.73;3.43;;;12.40;53.00;;;;;;20756;6760;71845;-73
2023/10/23 08:58:23;;;;;;;3.90;3.60;;;12.30;52.80;;;;;;20446;6770;316900;-73
2023/10/23 09:01:01;;;;;;;3.93;3.63;;;12.60;53.70;;;;;;20742;6760;67121;-74
2023/10/23 09:03:35;;;;;;;4.47;4.07;;;12.90;52.80;;;;;;20597;6760;336524;-75
2023/10/23 09:06:10;;;;;;;4.00;3.47;;;12.90;52.80;;;;;;20753;6760;67227;-74
2023/10/23 09:08:46;;;;;;;4.60;3.90;;;12.90;52.60;;;;;;20433;6760;339135;-73
2023/10/23 09:11:22;;;;;;;4.93;4.43;;;13.10;52.40;;;;;;20573;6751;277912;-74
2023/10/23 09:13:57;;;;;;;19.10;6.50;;;13.40;51.80;;;;;;20557;6807;276791;-74
2023/10/23 09:16:32;;;;;;;11.10;5.47;;;13.70;51.50;;;;;;20546;6751;308811;-76
2023/10/23 09:19:08;;;;;;;11.53;5.30;;;13.90;51.00;;;;;;20633;6751;277789;-76
2023/10/23 09:21:44;;;;;;;4.53;4.10;;;14.10;50.80;;;;;;20572;6805;326497;-74
2023/10/23 09:24:21;;;;;;;5.00;3.93;;;14.30;50.60;;;;;;20494;6776;306670;-74
2023/10/23 09:26:57;;;;;;;3.63;3.40;;;14.30;50.60;;;;;;20674;6791;67403;-74
2023/10/23 09:29:34;;;;;;;4.33;4.00;;;14.10;50.80;;;;;;20596;6765;68044;-74
2023/10/23 09:32:08;;;;;;;4.12;3.72;;;13.80;51.40;;;;;;20550;6766;335733;-74
2023/10/23 09:34:44;;;;;;;4.45;4.07;;;13.80;51.40;;;;;;20583;6764;307035;-76
2023/10/23 09:37:20;;;;;;;4.40;4.10;;;14.00;50.90;;;;;;20474;6773;277996;-74
2023/10/23 09:40:05;;;;;;;4.37;3.90;;;14.20;50.80;;;;;;20521;6760;313952;-74
2023/10/23 09:42:40;;;;;;;4.73;4.13;;;14.40;50.90;;;;;;20575;6820;307163;-75
2023/10/23 09:45:16;;;;;;;5.30;3.33;;;14.60;50.70;;;;;;20723;6764;105766;-73
2023/10/23 09:47:51;;;;;;;5.00;4.15;;;14.40;50.90;;;;;;20633;6749;335706;-75
2023/10/23 09:50:27;;;;;;;4.30;3.90;;;14.40;51.30;;;;;;20480;6779;286195;-74
2023/10/23 09:53:03;;;;;;;4.90;4.00;;;14.50;51.30;;;;;;20489;6777;278009;-74
2023/10/23 09:55:38;;;;;;;4.77;4.00;;;14.70;51.10;;;;;;20489;6775;337370;-74
2023/10/23 09:58:17;;;;;;;3.93;3.63;;;14.80;50.80;;;;;;20637;6779;70488;-74
2023/10/23 10:00:51;;;;;;;5.50;3.70;;;14.60;50.90;;;;;;20730;6768;67552;-74
2023/10/23 10:03:27;;;;;;;6.00;3.40;;;14.30;51.60;;;;;;20747;6764;67367;-73
2023/10/23 10:06:07;;;;;;;4.73;4.00;;;14.00;52.80;;;;;;20488;6779;327092;-74
2023/10/23 10:08:40;;;;;;;5.17;3.47;;;14.20;52.90;;;;;;20593;6767;68583;-74
2023/10/23 10:11:15;;;;;;;4.67;3.77;;;14.20;52.90;;;;;;20824;6758;68567;-74
2023/10/23 10:13:51;;;;;;;6.50;3.80;;;14.20;53.50;;;;;;20801;6764;68820;-74
2023/10/23 10:16:26;;;;;;;6.17;4.40;;;14.10;53.80;;;;;;20683;6779;67322;-75
2023/10/23 10:19:02;;;;;;;5.03;4.07;;;14.10;54.20;;;;;;20585;6767;70369;-74
2023/10/23 10:21:41;;;;;;;4.32;3.92;;;14.20;54.20;;;;;;20525;6758;342357;-74
2023/10/23 10:24:16;;;;;;;6.77;3.90;;;14.50;53.80;;;;;;20741;6764;67215;-74
2023/10/23 10:26:53;;;;;;;4.22;3.83;;;15.00;53.10;;;;;;20477;6779;317531;-74
2023/10/23 10:29:32;;;;;;;4.90;4.50;;;15.00;52.80;;;;;;20326;6789;317953;-76
2023/10/23 10:32:10;;;;;;;6.00;4.20;;;15.40;51.60;;;;;;20591;6764;279590;-76
2023/10/23 10:34:45;;;;;;;5.70;3.80;;;15.70;50.70;;;;;;20740;6763;68363;-77
2023/10/23 10:37:22;;;;;;;5.00;4.60;;;15.80;50.80;;;;;;20526;6764;343959;-76
2023/10/23 10:39:58;;;;;;;5.40;4.90;;;15.80;50.10;;;;;;20468;6783;337624;-76
2023/10/23 10:42:37;;;;;;;4.77;4.20;;;16.00;49.50;;;;;;20682;6783;68222;-74
2023/10/23 10:45:16;;;;;;;7.20;4.60;;;15.80;49.80;;;;;;20704;6774;68509;-75
2023/10/23 10:47:54;;;;;;;7.57;4.50;;;15.60;50.60;;;;;;20395;6774;281763;-75
2023/10/23 10:50:33;;;;;;;5.40;4.20;;;15.70;51.00;;;;;;20864;6745;67150;-75
2023/10/23 10:53:09;;;;;;;5.33;4.83;;;15.60;50.90;;;;;;20655;6745;277150;-76
2023/10/23 10:55:45;;;;;;;4.77;4.47;;;15.70;50.90;;;;;;20837;6745;71679;-74
2023/10/23 10:58:20;;;;;;;5.25;4.85;;;15.70;51.00;;;;;;20636;6749;294542;-76
2023/10/23 11:00:56;;;;;;;4.90;4.50;;;15.80;51.60;;;;;;20852;6749;67510;-75
2023/10/23 11:03:32;;;;;;;6.47;4.70;;;15.80;51.60;;;;;;20791;6749;67247;-74
2023/10/23 11:06:08;;;;;;;5.40;4.90;;;15.70;52.00;;;;;;20504;6775;278219;-75
2023/10/23 11:08:43;;;;;;;4.43;4.03;;;15.80;51.90;;;;;;20606;6776;71404;-75
2023/10/23 11:11:19;;;;;;;4.67;4.37;;;15.90;52.00;;;;;;20751;6762;71022;-75
2023/10/23 11:13:54;;;;;;;3.40;3.20;;;15.80;52.30;;;;;;20747;6762;75743;-76
2023/10/23 11:16:32;;;;;;;4.95;3.85;;;15.70;52.60;;;;;;20532;6762;336314;-77
2023/10/23 11:19:07;;;;;;;4.03;3.72;;;16.00;52.20;;;;;;20434;6762;286837;-76
2023/10/23 11:21:43;;;;;;;6.60;5.10;;;16.30;50.70;;;;;;20609;6739;277612;-77
2023/10/23 11:24:21;;;;;;;5.30;4.80;;;16.60;50.40;;;;;;20824;6739;68216;-77
2023/10/23 11:26:53;;;;;;;7.40;5.13;;;16.60;50.60;;;;;;20548;6739;282929;-75
2023/10/23 11:29:43;;;;;;;5.53;5.13;;;16.80;49.70;;;;;;20664;6739;306008;-77
2023/10/23 11:32:18;;;;;;;8.20;7.50;;;16.80;49.70;;;;;;20659;6739;277112;-74
2023/10/23 11:34:55;;;;;;;5.80;5.40;;;16.90;48.70;;;;;;20884;6739;69615;-76
2023/10/23 11:37:25;;;;;;;7.70;7.10;;;16.70;49.10;;;;;;20459;6738;310668;-78
2023/10/23 11:39:52;;;;;;;10.77;9.77;;;16.70;48.60;;;;;;20431;6873;280253;-78
2023/10/23 11:42:17;;;;;;;10.50;6.63;;;16.70;49.00;;;;;;20420;6873;308952;-76
2023/10/23 11:44:46;;;;;;;8.65;5.62;;;16.80;48.20;;;;;;20428;6871;308758;-77
2023/10/23 11:47:09;;;;;;;7.97;5.63;;;16.70;48.10;;;;;;20630;6873;68052;-73
2023/10/23 11:49:35;;;;;;;60.75;27.13;;;16.50;48.60;;;;;;20641;6873;68554;-75
2023/10/23 11:52:00;;;;;;;26.23;13.10;;;16.20;49.40;;;;;;20634;6873;68482;-75
2023/10/23 11:54:26;;;;;;;5.43;4.93;;;15.90;50.10;;;;;;20410;6873;308724;-73
2023/10/23 11:56:51;;;;;;;6.03;4.40;;;15.90;50.40;;;;;;20628;6873;68341;-73
2023/10/23 11:59:18;;;;;;;9.18;8.35;;;15.90;50.50;;;;;;20408;6873;309216;-80
2023/10/23 12:01:44;;;;;;;7.15;5.45;;;16.00;50.50;;;;;;20376;6873;309697;-74
2023/10/23 12:04:10;;;;;;;5.82;5.12;;;16.60;50.40;;;;;;20379;6873;306932;-74
2023/10/23 12:06:36;;;;;;;5.80;4.50;;;16.60;50.40;;;;;;20622;6873;68548;-74
2023/10/23 12:09:01;;;;;;;5.67;4.13;;;16.60;50.60;;;;;;20630;6873;67560;-74
2023/10/23 12:11:27;;;;;;;5.37;4.87;;;16.40;50.90;;;;;;20430;6873;283610;-74
2023/10/23 12:13:57;;;;;;;5.95;5.10;;;16.50;50.50;;;;;;20435;6873;308902;-78
2023/10/23 12:16:21;;;;;;;5.27;4.63;;;16.80;50.40;;;;;;20628;6873;69984;-78
2023/10/23 12:18:47;;;;;;;4.60;4.20;;;16.80;50.40;;;;;;20639;6873;74786;-78
2023/10/23 12:21:13;;;;;;;4.33;4.03;;;16.50;50.70;;;;;;20636;6873;68160;-78
2023/10/23 12:23:38;;;;;;;5.25;4.85;;;16.30;51.10;;;;;;20424;6873;338463;-77
2023/10/23 12:26:04;;;;;;;5.37;4.43;;;16.40;50.90;;;;;;20633;6873;73782;-76
2023/10/23 12:28:29;;;;;;;5.45;4.87;;;16.30;50.90;;;;;;20419;6873;345777;-75
2023/10/23 12:30:55;;;;;;;5.97;4.37;;;16.30;51.00;;;;;;20634;6873;79544;-76
2023/10/23 12:33:21;;;;;;;4.97;4.47;;;16.20;50.90;;;;;;20428;6873;289295;-76
2023/10/23 12:35:47;;;;;;;4.10;3.73;;;16.20;51.20;;;;;;20635;6873;68462;-76
2023/10/23 12:38:13;;;;;;;5.37;4.23;;;16.20;51.40;;;;;;20633;6873;67971;-77
2023/10/23 12:40:39;;;;;;;6.00;4.85;;;16.00;51.50;;;;;;20641;6873;68053;-83
2023/10/23 12:43:04;;;;;;;7.57;3.90;;;15.80;51.70;;;;;;20644;6873;68460;-77
2023/10/23 12:45:29;;;;;;;5.40;4.90;;;15.60;52.00;;;;;;20410;6873;279778;-77
2023/10/23 12:47:55;;;;;;;5.65;5.10;;;15.80;52.10;;;;;;20423;6873;279288;-77